createdAt,value
2022-09-27T00:00:46.809Z,7.43
2022-09-27T00:03:13.725Z,7.78
2022-09-27T00:05:40.524Z,7.47
2022-09-27T00:08:07.189Z,7.90
2022-09-27T00:10:33.845Z,7.78
2022-09-27T00:13:00.490Z,7.78
2022-09-27T00:15:27.197Z,7.18
2022-09-27T00:17:53.945Z,7.40
2022-09-27T00:20:21.150Z,7.30
2022-09-27T00:22:48.973Z,7.18
2022-09-27T00:25:16.580Z,7.85
2022-09-27T00:27:43.700Z,8.07
2022-09-27T00:30:11.175Z,7.65
2022-09-27T00:32:37.797Z,8.85
2022-09-27T00:35:04.730Z,8.73
2022-09-27T00:37:31.338Z,8.48
2022-09-27T00:39:57.934Z,8.93
2022-09-27T00:42:24.608Z,9.05
2022-09-27T00:44:59.993Z,8.27
2022-09-27T00:47:41.038Z,8.32
2022-09-27T00:50:16.305Z,8.88
2022-09-27T00:53:04.188Z,8.43
2022-09-27T00:55:35.152Z,9.30
2022-09-27T00:58:05.179Z,8.32
2022-09-27T01:00:32.669Z,10.27
2022-09-27T01:03:01.386Z,8.48
2022-09-27T01:05:29.801Z,9.25
2022-09-27T01:07:56.822Z,8.73
2022-09-27T01:10:26.572Z,8.63
2022-09-27T01:13:00.612Z,8.57
2022-09-27T01:15:36.223Z,8.30
2022-09-27T01:18:13.343Z,8.70
2022-09-27T01:20:54.860Z,9.20
2022-09-27T01:23:39.596Z,8.67
2022-09-27T01:26:24.817Z,10.20
2022-09-27T01:28:58.895Z,10.13
2022-09-27T01:31:47.085Z,10.57
2022-09-27T01:34:31.995Z,9.18
2022-09-27T01:37:26.383Z,10.38
2022-09-27T01:40:08.156Z,10.05
2022-09-27T01:42:50.347Z,10.77
2022-09-27T01:45:42.528Z,9.68
2022-09-27T01:48:22.736Z,10.02
2022-09-27T01:51:11.021Z,10.25
2022-09-27T01:53:41.850Z,10.23
2022-09-27T01:56:15.210Z,9.90
2022-09-27T01:58:49.380Z,11.65
2022-09-27T02:01:19.486Z,12.38
2022-09-27T02:03:51.670Z,11.52
2022-09-27T02:06:23.116Z,13.77
2022-09-27T02:09:12.363Z,14.25
2022-09-27T02:11:45.203Z,11.90
2022-09-27T02:14:19.801Z,11.70
2022-09-27T02:16:51.597Z,13.00
2022-09-27T02:19:46.206Z,12.18
2022-09-27T02:22:28.581Z,12.32
2022-09-27T02:27:37.019Z,10.07
2022-09-27T02:30:22.029Z,12.20
2022-09-27T02:32:48.680Z,11.05
2022-09-27T02:35:27.368Z,12.10
2022-09-27T02:37:55.556Z,11.73
2022-09-27T02:40:23.583Z,12.18
2022-09-27T02:42:50.820Z,13.20
2022-09-27T02:45:19.775Z,13.77
2022-09-27T02:47:56.888Z,13.50
2022-09-27T02:50:42.695Z,13.40
2022-09-27T02:53:46.038Z,12.57
2022-09-27T02:56:40.583Z,13.90
2022-09-27T02:59:19.079Z,13.80
2022-09-27T03:02:04.289Z,14.70
2022-09-27T03:05:03.204Z,15.30
2022-09-27T03:07:30.329Z,14.65
2022-09-27T03:09:57.048Z,15.20
2022-09-27T03:12:26.163Z,15.95
2022-09-27T03:14:58.536Z,15.93
2022-09-27T03:17:25.677Z,17.52
2022-09-27T03:19:52.678Z,18.30
2022-09-27T03:22:19.365Z,16.95
2022-09-27T03:24:45.968Z,18.77
2022-09-27T03:27:12.925Z,18.25
2022-09-27T03:29:39.485Z,16.67
2022-09-27T03:32:06.159Z,17.15
2022-09-27T03:34:32.834Z,16.83
2022-09-27T03:36:59.586Z,18.83
2022-09-27T03:39:26.229Z,16.52
2022-09-27T03:41:53.236Z,17.73
2022-09-27T03:44:19.987Z,17.50
2022-09-27T03:46:46.953Z,17.08
2022-09-27T03:49:13.578Z,17.20
2022-09-27T03:51:40.273Z,17.73
2022-09-27T03:54:06.850Z,17.77
2022-09-27T03:56:33.623Z,18.20
2022-09-27T03:59:01.195Z,21.42
2022-09-27T04:01:28.978Z,22.88
2022-09-27T04:03:55.706Z,22.08
2022-09-27T04:06:23.202Z,24.00
2022-09-27T04:08:50.755Z,22.98
2022-09-27T04:11:17.577Z,24.35
2022-09-27T04:13:44.643Z,23.90
2022-09-27T04:16:11.328Z,23.27
2022-09-27T04:18:37.931Z,23.45
2022-09-27T04:21:04.636Z,22.05
2022-09-27T04:23:31.457Z,23.25
2022-09-27T04:25:58.121Z,22.10
2022-09-27T04:28:24.821Z,17.15
2022-09-27T04:30:51.483Z,21.95
2022-09-27T04:33:18.140Z,22.05
2022-09-27T04:36:03.370Z,19.60
2022-09-27T04:38:30.049Z,19.20
2022-09-27T04:40:56.947Z,20.50
2022-09-27T04:43:23.724Z,16.27
2022-09-27T04:45:50.470Z,18.52
2022-09-27T04:48:17.337Z,19.52
2022-09-27T04:50:43.929Z,17.25
2022-09-27T04:53:15.237Z,18.52
2022-09-27T04:55:47.558Z,17.52
2022-09-27T04:58:14.271Z,17.42
2022-09-27T05:00:42.868Z,15.98
2022-09-27T05:03:09.683Z,18.67
2022-09-27T05:05:36.433Z,16.23
2022-09-27T05:08:03.041Z,15.00
2022-09-27T05:10:29.779Z,14.15
2022-09-27T05:12:56.442Z,14.43
2022-09-27T05:15:23.111Z,14.23
2022-09-27T05:17:52.629Z,14.77
2022-09-27T05:20:19.898Z,14.68
2022-09-27T05:22:47.134Z,14.95
2022-09-27T05:25:13.917Z,15.25
2022-09-27T05:27:40.914Z,15.40
2022-09-27T05:30:08.313Z,14.10
2022-09-27T05:32:35.912Z,13.65
2022-09-27T05:35:02.633Z,14.02
2022-09-27T05:37:33.007Z,13.05
2022-09-27T05:40:01.237Z,13.52
2022-09-27T05:42:37.840Z,14.98
2022-09-27T05:45:05.306Z,12.63
2022-09-27T05:47:31.858Z,14.00
2022-09-27T05:49:58.729Z,13.43
2022-09-27T05:52:26.776Z,14.40
2022-09-27T05:54:53.558Z,13.75
2022-09-27T05:57:20.130Z,14.00
2022-09-27T05:59:47.871Z,14.15
2022-09-27T06:02:14.523Z,14.70
2022-09-27T06:04:41.161Z,15.02
2022-09-27T06:07:07.881Z,18.30
2022-09-27T06:09:34.476Z,20.58
2022-09-27T06:12:01.189Z,17.48
2022-09-27T06:14:27.919Z,19.63
2022-09-27T06:16:55.196Z,23.90
2022-09-27T06:19:22.059Z,22.25
2022-09-27T06:21:51.736Z,19.55
2022-09-27T06:24:18.402Z,17.75
2022-09-27T06:26:45.478Z,16.52
2022-09-27T06:29:12.161Z,14.80
2022-09-27T06:31:39.846Z,15.70
2022-09-27T06:34:06.803Z,16.15
2022-09-27T06:36:33.468Z,16.98
2022-09-27T06:39:01.796Z,17.85
2022-09-27T06:41:28.478Z,17.98
2022-09-27T06:43:56.269Z,19.23
2022-09-27T06:46:22.977Z,20.13
2022-09-27T06:48:49.590Z,22.65
2022-09-27T06:51:16.257Z,21.98
2022-09-27T06:53:43.053Z,23.15
2022-09-27T06:56:09.693Z,19.70
2022-09-27T06:58:55.227Z,23.70
2022-09-27T07:01:21.972Z,21.38
2022-09-27T07:03:51.734Z,23.38
2022-09-27T07:06:22.680Z,24.05
2022-09-27T07:08:53.622Z,25.33
2022-09-27T07:11:22.724Z,26.52
2022-09-27T07:13:51.140Z,49.70
2022-09-27T07:16:18.114Z,41.30
2022-09-27T07:18:44.890Z,24.55
2022-09-27T07:21:12.651Z,21.83
2022-09-27T07:23:39.541Z,27.17
2022-09-27T07:26:07.494Z,75.30
2022-09-27T07:28:34.641Z,28.85
2022-09-27T07:31:02.744Z,20.50
2022-09-27T07:33:30.875Z,21.05
2022-09-27T07:35:57.647Z,21.70
2022-09-27T07:38:24.331Z,22.08
2022-09-27T07:40:51.112Z,20.95
2022-09-27T07:43:19.522Z,23.23
2022-09-27T07:45:46.734Z,24.10
2022-09-27T07:48:15.891Z,27.38
2022-09-27T07:50:43.042Z,22.40
2022-09-27T07:53:12.950Z,21.88
2022-09-27T07:55:40.834Z,22.10
2022-09-27T07:58:10.420Z,22.67
2022-09-27T08:00:38.471Z,20.88
2022-09-27T08:03:07.340Z,20.20
2022-09-27T08:05:36.285Z,17.90
2022-09-27T08:08:04.037Z,18.92
2022-09-27T08:10:31.840Z,18.48
2022-09-27T08:12:59.519Z,18.33
2022-09-27T08:15:26.086Z,17.50
2022-09-27T08:17:53.657Z,19.63
2022-09-27T08:20:20.292Z,19.27
2022-09-27T08:22:47.016Z,18.85
2022-09-27T08:25:14.387Z,20.70
2022-09-27T08:27:41.796Z,18.35
2022-09-27T08:30:08.997Z,18.35
2022-09-27T08:32:36.678Z,19.42
2022-09-27T08:35:03.333Z,19.50
2022-09-27T08:37:30.038Z,19.88
2022-09-27T08:39:56.840Z,19.50
2022-09-27T08:42:47.006Z,20.15
2022-09-27T08:45:27.731Z,19.33
2022-09-27T08:48:00.270Z,25.25
2022-09-27T08:50:39.961Z,17.50
2022-09-27T08:53:55.050Z,19.38
2022-09-27T08:56:22.577Z,14.88
2022-09-27T08:58:55.405Z,15.27
2022-09-27T09:01:26.356Z,13.77
2022-09-27T09:04:00.047Z,13.05
2022-09-27T09:06:32.652Z,11.90
2022-09-27T09:09:14.968Z,13.13
2022-09-27T09:12:05.975Z,12.15
2022-09-27T09:14:57.310Z,14.45
2022-09-27T09:17:45.220Z,19.30
2022-09-27T09:20:49.218Z,15.85
2022-09-27T09:23:29.586Z,11.23
2022-09-27T09:26:13.541Z,11.50
2022-09-27T09:29:04.302Z,11.23
2022-09-27T09:31:37.057Z,11.23
2022-09-27T09:34:44.936Z,10.60
2022-09-27T09:37:16.458Z,10.75
2022-09-27T09:39:50.356Z,12.02
2022-09-27T09:42:33.389Z,11.63
2022-09-27T09:45:16.243Z,10.68
2022-09-27T09:48:29.751Z,10.25
2022-09-27T09:51:01.474Z,9.85
2022-09-27T09:53:49.242Z,9.65
2022-09-27T09:56:27.981Z,9.00
2022-09-27T09:59:05.402Z,9.10
2022-09-27T10:01:47.027Z,10.40
2022-09-27T10:04:32.802Z,10.75
2022-09-27T10:07:01.358Z,12.07
2022-09-27T10:09:28.886Z,14.35
2022-09-27T10:11:56.259Z,10.82
2022-09-27T10:14:23.260Z,10.45
2022-09-27T10:16:55.918Z,9.48
2022-09-27T10:19:30.306Z,9.85
2022-09-27T10:22:14.361Z,9.55
2022-09-27T10:25:02.555Z,7.70
2022-09-27T10:27:42.788Z,7.88
2022-09-27T10:30:41.865Z,7.82
2022-09-27T10:33:16.819Z,8.13
2022-09-27T10:35:46.170Z,7.93
2022-09-27T10:38:34.024Z,7.47
2022-09-27T10:41:17.456Z,8.15
2022-09-27T10:43:44.168Z,8.50
2022-09-27T10:46:19.612Z,6.88
2022-09-27T10:48:46.209Z,7.50
2022-09-27T10:51:31.442Z,7.45
2022-09-27T10:54:01.684Z,7.15
2022-09-27T10:56:31.592Z,8.45
2022-09-27T10:59:00.202Z,6.25
2022-09-27T11:01:38.708Z,6.57
2022-09-27T11:04:06.490Z,6.82
2022-09-27T11:06:37.960Z,5.70
2022-09-27T11:09:31.454Z,4.13
2022-09-27T11:12:13.231Z,5.55
2022-09-27T11:14:41.174Z,4.75
2022-09-27T11:17:07.762Z,5.35
2022-09-27T11:20:07.440Z,4.65
2022-09-27T11:22:58.933Z,3.95
2022-09-27T11:25:44.230Z,4.93
2022-09-27T11:28:38.008Z,3.90
2022-09-27T11:31:19.832Z,4.60
2022-09-27T11:34:01.499Z,4.07
2022-09-27T11:36:43.406Z,3.70
2022-09-27T11:39:26.935Z,3.45
2022-09-27T11:42:02.825Z,3.55
2022-09-27T11:44:40.409Z,4.00
2022-09-27T11:47:46.034Z,2.88
2022-09-27T11:50:27.989Z,4.40
2022-09-27T11:56:00.822Z,3.70
2022-09-27T11:58:45.713Z,3.13
2022-09-27T12:01:25.984Z,2.80
2022-09-27T12:03:59.528Z,3.03
2022-09-27T12:06:34.038Z,2.78
2022-09-27T12:09:15.152Z,2.55
2022-09-27T12:12:04.562Z,3.10
2022-09-27T12:14:43.184Z,2.97
2022-09-27T12:17:24.102Z,2.97
